sensor_id;sensor_type;location;lat;lon;timestamp;pressure;altitude;pressure_sealevel;temperature;humidity
72855;BME280;60991;51.278;22.550;2023-08-31T00:00:50;98227.16;;;19.97;72.59
72855;BME280;60991;51.278;22.550;2023-08-31T00:02:21;98228.41;;;20.00;72.55
72855;BME280;60991;51.278;22.550;2023-08-31T00:03:51;98233.16;;;20.03;72.57
72855;BME280;60991;51.278;22.550;2023-08-31T00:05:21;98230.44;;;20.03;72.41
72855;BME280;60991;51.278;22.550;2023-08-31T00:06:51;98232.00;;;20.04;72.29
72855;BME280;60991;51.278;22.550;2023-08-31T00:08:21;98235.47;;;20.04;72.14
72855;BME280;60991;51.278;22.550;2023-08-31T00:09:52;98233.16;;;20.03;72.04
72855;BME280;60991;51.278;22.550;2023-08-31T00:11:23;98234.38;;;20.05;72.10
72855;BME280;60991;51.278;22.550;2023-08-31T00:12:53;98232.47;;;20.06;71.96
72855;BME280;60991;51.278;22.550;2023-08-31T00:14:24;98229.19;;;20.00;71.85
72855;BME280;60991;51.278;22.550;2023-08-31T00:15:55;98235.06;;;20.02;71.95
72855;BME280;60991;51.278;22.550;2023-08-31T00:17:26;98236.94;;;20.02;71.87
72855;BME280;60991;51.278;22.550;2023-08-31T00:18:56;98233.47;;;20.01;71.84
72855;BME280;60991;51.278;22.550;2023-08-31T00:20:27;98238.53;;;20.03;72.04
72855;BME280;60991;51.278;22.550;2023-08-31T00:21:57;98238.72;;;19.98;72.02
72855;BME280;60991;51.278;22.550;2023-08-31T00:23:28;98234.59;;;20.00;72.03
72855;BME280;60991;51.278;22.550;2023-08-31T00:24:58;98230.03;;;19.92;72.23
72855;BME280;60991;51.278;22.550;2023-08-31T00:26:29;98233.50;;;19.93;72.28
72855;BME280;60991;51.278;22.550;2023-08-31T00:27:59;98243.50;;;19.92;72.29
72855;BME280;60991;51.278;22.550;2023-08-31T00:29:29;98247.16;;;19.88;72.64
72855;BME280;60991;51.278;22.550;2023-08-31T00:31:01;98243.25;;;19.85;72.75
72855;BME280;60991;51.278;22.550;2023-08-31T00:32:31;98243.41;;;19.80;72.81
72855;BME280;60991;51.278;22.550;2023-08-31T00:34:01;98242.44;;;19.85;72.88
72855;BME280;60991;51.278;22.550;2023-08-31T00:35:33;98235.34;;;19.80;72.89
72855;BME280;60991;51.278;22.550;2023-08-31T00:37:03;98239.75;;;19.85;72.97
72855;BME280;60991;51.278;22.550;2023-08-31T00:38:33;98230.53;;;19.86;73.21
72855;BME280;60991;51.278;22.550;2023-08-31T00:40:04;98240.34;;;19.90;72.91
72855;BME280;60991;51.278;22.550;2023-08-31T00:41:34;98237.94;;;19.97;72.91
72855;BME280;60991;51.278;22.550;2023-08-31T00:43:05;98243.47;;;20.01;72.63
72855;BME280;60991;51.278;22.550;2023-08-31T00:44:35;98240.16;;;19.95;72.50
72855;BME280;60991;51.278;22.550;2023-08-31T00:46:05;98241.88;;;20.00;72.77
72855;BME280;60991;51.278;22.550;2023-08-31T00:47:36;98233.00;;;19.99;72.78
72855;BME280;60991;51.278;22.550;2023-08-31T00:49:07;98238.56;;;19.94;71.73
72855;BME280;60991;51.278;22.550;2023-08-31T00:50:37;98230.34;;;19.91;71.85
72855;BME280;60991;51.278;22.550;2023-08-31T00:52:08;98238.44;;;19.91;71.83
72855;BME280;60991;51.278;22.550;2023-08-31T00:53:39;98236.63;;;19.74;72.01
72855;BME280;60991;51.278;22.550;2023-08-31T00:55:10;98233.06;;;19.61;72.21
72855;BME280;60991;51.278;22.550;2023-08-31T00:56:41;98237.59;;;19.69;72.27
72855;BME280;60991;51.278;22.550;2023-08-31T00:58:11;98239.31;;;19.74;72.20
72855;BME280;60991;51.278;22.550;2023-08-31T00:59:42;98247.63;;;19.60;72.28
72855;BME280;60991;51.278;22.550;2023-08-31T01:03:06;98239.78;;;19.38;73.18
72855;BME280;60991;51.278;22.550;2023-08-31T01:04:51;98237.78;;;19.26;73.63
72855;BME280;60991;51.278;22.550;2023-08-31T01:06:34;98233.13;;;19.35;73.47
72855;BME280;60991;51.278;22.550;2023-08-31T01:08:29;98234.16;;;19.22;73.86
72855;BME280;60991;51.278;22.550;2023-08-31T01:12:10;98233.66;;;19.29;73.84
72855;BME280;60991;51.278;22.550;2023-08-31T01:13:42;98238.88;;;19.25;74.18
72855;BME280;60991;51.278;22.550;2023-08-31T01:15:14;98234.25;;;19.34;74.04
72855;BME280;60991;51.278;22.550;2023-08-31T01:16:49;98241.03;;;19.41;73.64
72855;BME280;60991;51.278;22.550;2023-08-31T01:18:22;98241.34;;;19.39;73.41
72855;BME280;60991;51.278;22.550;2023-08-31T01:19:54;98245.94;;;19.38;73.25
72855;BME280;60991;51.278;22.550;2023-08-31T01:21:35;98239.94;;;19.42;73.21
72855;BME280;60991;51.278;22.550;2023-08-31T01:23:13;98245.47;;;19.45;72.68
72855;BME280;60991;51.278;22.550;2023-08-31T01:24:46;98244.97;;;19.52;72.26
72855;BME280;60991;51.278;22.550;2023-08-31T01:26:17;98245.94;;;19.47;72.33
72855;BME280;60991;51.278;22.550;2023-08-31T01:27:47;98250.03;;;19.53;72.08
72855;BME280;60991;51.278;22.550;2023-08-31T01:29:18;98254.78;;;19.56;72.12
72855;BME280;60991;51.278;22.550;2023-08-31T01:30:48;98255.38;;;19.62;71.99
72855;BME280;60991;51.278;22.550;2023-08-31T01:32:18;98258.09;;;19.62;72.12
72855;BME280;60991;51.278;22.550;2023-08-31T01:33:49;98258.88;;;19.62;71.74
72855;BME280;60991;51.278;22.550;2023-08-31T01:35:19;98255.06;;;19.63;71.92
72855;BME280;60991;51.278;22.550;2023-08-31T01:36:54;98254.59;;;19.61;71.95
72855;BME280;60991;51.278;22.550;2023-08-31T01:38:28;98252.38;;;19.63;72.14
72855;BME280;60991;51.278;22.550;2023-08-31T01:40:11;98248.28;;;19.57;72.42
72855;BME280;60991;51.278;22.550;2023-08-31T01:41:46;98251.91;;;19.61;72.33
72855;BME280;60991;51.278;22.550;2023-08-31T01:43:19;98255.84;;;19.64;72.52
72855;BME280;60991;51.278;22.550;2023-08-31T01:44:51;98248.44;;;19.61;72.79
72855;BME280;60991;51.278;22.550;2023-08-31T01:46:21;98251.59;;;19.63;72.87
72855;BME280;60991;51.278;22.550;2023-08-31T01:47:52;98252.06;;;19.65;72.77
72855;BME280;60991;51.278;22.550;2023-08-31T01:49:22;98247.91;;;19.67;73.09
72855;BME280;60991;51.278;22.550;2023-08-31T01:50:52;98251.06;;;19.69;73.24
72855;BME280;60991;51.278;22.550;2023-08-31T01:52:22;98251.72;;;19.66;73.16
72855;BME280;60991;51.278;22.550;2023-08-31T01:53:53;98237.84;;;19.47;73.36
72855;BME280;60991;51.278;22.550;2023-08-31T01:55:24;98242.78;;;19.36;73.88
72855;BME280;60991;51.278;22.550;2023-08-31T01:56:54;98238.84;;;19.34;74.29
72855;BME280;60991;51.278;22.550;2023-08-31T01:58:24;98230.97;;;19.29;74.53
72855;BME280;60991;51.278;22.550;2023-08-31T01:59:55;98232.13;;;19.11;75.13
72855;BME280;60991;51.278;22.550;2023-08-31T02:01:25;98233.72;;;19.03;75.37
72855;BME280;60991;51.278;22.550;2023-08-31T02:02:55;98234.19;;;19.05;75.65
72855;BME280;60991;51.278;22.550;2023-08-31T02:04:25;98234.19;;;18.96;75.87
72855;BME280;60991;51.278;22.550;2023-08-31T02:05:56;98242.16;;;18.84;76.50
72855;BME280;60991;51.278;22.550;2023-08-31T02:07:26;98237.09;;;18.83;76.40
72855;BME280;60991;51.278;22.550;2023-08-31T02:08:56;98235.53;;;18.73;76.76
72855;BME280;60991;51.278;22.550;2023-08-31T02:10:26;98232.50;;;18.75;76.86
72855;BME280;60991;51.278;22.550;2023-08-31T02:11:56;98231.09;;;18.68;76.71
72855;BME280;60991;51.278;22.550;2023-08-31T02:13:27;98230.44;;;18.80;76.61
72855;BME280;60991;51.278;22.550;2023-08-31T02:14:57;98234.88;;;18.85;76.31
72855;BME280;60991;51.278;22.550;2023-08-31T02:16:27;98232.50;;;18.83;76.09
72855;BME280;60991;51.278;22.550;2023-08-31T02:17:57;98237.88;;;18.83;76.35
72855;BME280;60991;51.278;22.550;2023-08-31T02:19:27;98230.28;;;18.85;76.38
72855;BME280;60991;51.278;22.550;2023-08-31T02:20:58;98233.75;;;18.86;76.48
72855;BME280;60991;51.278;22.550;2023-08-31T02:22:30;98229.97;;;18.87;76.35
72855;BME280;60991;51.278;22.550;2023-08-31T02:24:00;98228.69;;;18.76;76.86
72855;BME280;60991;51.278;22.550;2023-08-31T02:25:30;98238.50;;;18.80;76.73
72855;BME280;60991;51.278;22.550;2023-08-31T02:27:01;98240.41;;;18.88;76.48
72855;BME280;60991;51.278;22.550;2023-08-31T02:28:31;98234.88;;;18.76;76.46
72855;BME280;60991;51.278;22.550;2023-08-31T02:30:01;98247.22;;;18.86;76.44
72855;BME280;60991;51.278;22.550;2023-08-31T02:31:31;98249.75;;;18.82;76.15
72855;BME280;60991;51.278;22.550;2023-08-31T02:33:01;98259.22;;;18.80;76.26
72855;BME280;60991;51.278;22.550;2023-08-31T02:34:32;98253.56;;;18.64;76.01
72855;BME280;60991;51.278;22.550;2023-08-31T02:36:02;98260.53;;;18.74;76.00
72855;BME280;60991;51.278;22.550;2023-08-31T02:37:32;98253.25;;;18.65;76.26
72855;BME280;60991;51.278;22.550;2023-08-31T02:39:02;98255.13;;;18.65;76.32
72855;BME280;60991;51.278;22.550;2023-08-31T02:40:34;98262.72;;;18.72;76.10
72855;BME280;60991;51.278;22.550;2023-08-31T02:42:04;98257.34;;;18.63;76.49
72855;BME280;60991;51.278;22.550;2023-08-31T02:43:34;98250.25;;;18.67;76.40
72855;BME280;60991;51.278;22.550;2023-08-31T02:45:05;98254.50;;;18.68;76.22
72855;BME280;60991;51.278;22.550;2023-08-31T02:46:35;98258.16;;;18.72;76.14
72855;BME280;60991;51.278;22.550;2023-08-31T02:48:09;98250.38;;;18.79;76.32
72855;BME280;60991;51.278;22.550;2023-08-31T02:49:39;98255.75;;;18.79;75.96
72855;BME280;60991;51.278;22.550;2023-08-31T02:51:09;98256.38;;;18.85;75.69
72855;BME280;60991;51.278;22.550;2023-08-31T02:52:40;98260.81;;;18.81;75.97
72855;BME280;60991;51.278;22.550;2023-08-31T02:54:10;98256.88;;;18.70;75.48
72855;BME280;60991;51.278;22.550;2023-08-31T02:55:42;98261.31;;;18.65;75.98
72855;BME280;60991;51.278;22.550;2023-08-31T02:57:12;98257.34;;;18.54;76.52
72855;BME280;60991;51.278;22.550;2023-08-31T02:58:42;98260.50;;;18.65;75.93
72855;BME280;60991;51.278;22.550;2023-08-31T03:00:13;98262.72;;;18.54;76.08
72855;BME280;60991;51.278;22.550;2023-08-31T03:01:43;98257.78;;;18.56;76.24
72855;BME280;60991;51.278;22.550;2023-08-31T03:03:16;98260.03;;;18.63;76.21
72855;BME280;60991;51.278;22.550;2023-08-31T03:04:46;98265.09;;;18.73;75.96
72855;BME280;60991;51.278;22.550;2023-08-31T03:06:17;98265.88;;;18.65;76.00
72855;BME280;60991;51.278;22.550;2023-08-31T03:07:47;98265.44;;;18.72;75.71
72855;BME280;60991;51.278;22.550;2023-08-31T03:09:17;98275.38;;;18.80;75.51
72855;BME280;60991;51.278;22.550;2023-08-31T03:10:47;98269.66;;;18.81;75.22
72855;BME280;60991;51.278;22.550;2023-08-31T03:12:17;98272.03;;;18.83;75.49
72855;BME280;60991;51.278;22.550;2023-08-31T03:13:48;98271.72;;;18.76;75.38
72855;BME280;60991;51.278;22.550;2023-08-31T03:15:18;98272.03;;;18.83;75.21
72855;BME280;60991;51.278;22.550;2023-08-31T03:16:48;98273.78;;;18.87;75.18
72855;BME280;60991;51.278;22.550;2023-08-31T03:18:18;98275.22;;;18.85;75.27
72855;BME280;60991;51.278;22.550;2023-08-31T03:19:49;98271.88;;;18.88;75.01
72855;BME280;60991;51.278;22.550;2023-08-31T03:21:19;98278.22;;;18.92;75.08
72855;BME280;60991;51.278;22.550;2023-08-31T03:22:49;98279.16;;;18.87;75.09
72855;BME280;60991;51.278;22.550;2023-08-31T03:24:19;98280.91;;;18.83;75.13
72855;BME280;60991;51.278;22.550;2023-08-31T03:25:50;98282.16;;;18.86;75.40
72855;BME280;60991;51.278;22.550;2023-08-31T03:27:20;98283.91;;;18.90;75.07
72855;BME280;60991;51.278;22.550;2023-08-31T03:28:50;98283.28;;;18.85;75.26
72855;BME280;60991;51.278;22.550;2023-08-31T03:30:20;98281.84;;;18.79;75.62
72855;BME280;60991;51.278;22.550;2023-08-31T03:31:51;98285.16;;;18.76;75.47
72855;BME280;60991;51.278;22.550;2023-08-31T03:33:21;98290.22;;;18.77;75.53
72855;BME280;60991;51.278;22.550;2023-08-31T03:34:51;98296.72;;;18.76;75.98
72855;BME280;60991;51.278;22.550;2023-08-31T03:36:21;98303.84;;;18.72;75.93
72855;BME280;60991;51.278;22.550;2023-08-31T03:37:55;98307.16;;;18.78;75.78
72855;BME280;60991;51.278;22.550;2023-08-31T03:39:25;98297.34;;;18.82;75.96
72855;BME280;60991;51.278;22.550;2023-08-31T03:40:56;98301.47;;;18.79;75.92
72855;BME280;60991;51.278;22.550;2023-08-31T03:42:26;98302.09;;;18.76;75.88
72855;BME280;60991;51.278;22.550;2023-08-31T03:43:56;98297.81;;;18.75;75.89
72855;BME280;60991;51.278;22.550;2023-08-31T03:45:27;98299.25;;;18.81;75.90
72855;BME280;60991;51.278;22.550;2023-08-31T03:46:57;98304.78;;;18.76;76.36
72855;BME280;60991;51.278;22.550;2023-08-31T03:48:27;98301.78;;;18.78;75.58
72855;BME280;60991;51.278;22.550;2023-08-31T03:49:58;98308.28;;;18.85;75.42
72855;BME280;60991;51.278;22.550;2023-08-31T03:51:28;98310.94;;;18.77;75.66
72855;BME280;60991;51.278;22.550;2023-08-31T03:52:58;98315.84;;;18.75;75.70
72855;BME280;60991;51.278;22.550;2023-08-31T03:54:28;98314.44;;;18.77;75.63
72855;BME280;60991;51.278;22.550;2023-08-31T03:55:58;98313.00;;;18.80;75.44
72855;BME280;60991;51.278;22.550;2023-08-31T03:57:28;98312.72;;;18.73;76.03
72855;BME280;60991;51.278;22.550;2023-08-31T03:59:00;98312.22;;;18.71;76.12
72855;BME280;60991;51.278;22.550;2023-08-31T04:00:31;98320.75;;;18.64;75.85
72855;BME280;60991;51.278;22.550;2023-08-31T04:02:01;98319.16;;;18.54;76.17
72855;BME280;60991;51.278;22.550;2023-08-31T04:03:31;98322.28;;;18.56;76.12
72855;BME280;60991;51.278;22.550;2023-08-31T04:05:01;98325.66;;;18.62;75.92
72855;BME280;60991;51.278;22.550;2023-08-31T04:06:31;98329.56;;;18.56;76.23
72855;BME280;60991;51.278;22.550;2023-08-31T04:08:02;98325.16;;;18.51;76.43
72855;BME280;60991;51.278;22.550;2023-08-31T04:09:32;98331.31;;;18.52;76.13
72855;BME280;60991;51.278;22.550;2023-08-31T04:11:02;98323.38;;;18.38;76.58
72855;BME280;60991;51.278;22.550;2023-08-31T04:12:33;98327.81;;;18.43;76.27
72855;BME280;60991;51.278;22.550;2023-08-31T04:14:03;98325.00;;;18.48;76.43
72855;BME280;60991;51.278;22.550;2023-08-31T04:15:33;98323.09;;;18.48;76.47
72855;BME280;60991;51.278;22.550;2023-08-31T04:17:03;98324.66;;;18.58;76.22
72855;BME280;60991;51.278;22.550;2023-08-31T04:18:33;98327.06;;;18.59;76.63
72855;BME280;60991;51.278;22.550;2023-08-31T04:20:04;98320.41;;;18.48;76.67
72855;BME280;60991;51.278;22.550;2023-08-31T04:21:35;98325.16;;;18.51;76.54
72855;BME280;60991;51.278;22.550;2023-08-31T04:23:05;98313.94;;;18.49;76.18
72855;BME280;60991;51.278;22.550;2023-08-31T04:24:35;98314.22;;;18.39;76.80
72855;BME280;60991;51.278;22.550;2023-08-31T04:26:13;98315.34;;;18.47;76.54
72855;BME280;60991;51.278;22.550;2023-08-31T04:27:43;98325.16;;;18.51;76.51
72855;BME280;60991;51.278;22.550;2023-08-31T04:29:13;98322.16;;;18.53;76.21
72855;BME280;60991;51.278;22.550;2023-08-31T04:30:43;98316.44;;;18.46;76.45
72855;BME280;60991;51.278;22.550;2023-08-31T04:32:14;98318.03;;;18.47;76.25
72855;BME280;60991;51.278;22.550;2023-08-31T04:33:45;98318.34;;;18.45;76.31
72855;BME280;60991;51.278;22.550;2023-08-31T04:35:15;98327.69;;;18.48;76.44
72855;BME280;60991;51.278;22.550;2023-08-31T04:36:45;98321.34;;;18.44;76.04
72855;BME280;60991;51.278;22.550;2023-08-31T04:38:15;98316.75;;;18.44;76.00
72855;BME280;60991;51.278;22.550;2023-08-31T04:39:46;98317.41;;;18.50;76.28
72855;BME280;60991;51.278;22.550;2023-08-31T04:41:16;98323.41;;;18.47;76.28
72855;BME280;60991;51.278;22.550;2023-08-31T04:42:46;98315.50;;;18.50;76.22
72855;BME280;60991;51.278;22.550;2023-08-31T04:44:16;98318.50;;;18.49;76.12
72855;BME280;60991;51.278;22.550;2023-08-31T04:45:46;98321.34;;;18.44;76.36
72855;BME280;60991;51.278;22.550;2023-08-31T04:47:17;98326.56;;;18.40;76.53
72855;BME280;60991;51.278;22.550;2023-08-31T04:48:47;98331.59;;;18.42;76.46
72855;BME280;60991;51.278;22.550;2023-08-31T04:50:17;98332.56;;;18.46;76.60
72855;BME280;60991;51.278;22.550;2023-08-31T04:51:48;98333.84;;;18.48;76.76
72855;BME280;60991;51.278;22.550;2023-08-31T04:53:18;98335.88;;;18.43;76.73
72855;BME280;60991;51.278;22.550;2023-08-31T04:54:48;98333.69;;;18.45;76.73
72855;BME280;60991;51.278;22.550;2023-08-31T04:56:18;98335.25;;;18.46;76.97
72855;BME280;60991;51.278;22.550;2023-08-31T04:57:48;98338.88;;;18.41;76.81
72855;BME280;60991;51.278;22.550;2023-08-31T04:59:19;98342.84;;;18.44;76.80
72855;BME280;60991;51.278;22.550;2023-08-31T05:00:49;98345.22;;;18.37;77.51
72855;BME280;60991;51.278;22.550;2023-08-31T05:02:19;98343.16;;;18.33;77.50
72855;BME280;60991;51.278;22.550;2023-08-31T05:03:50;98347.09;;;18.27;77.91
72855;BME280;60991;51.278;22.550;2023-08-31T05:05:20;98357.03;;;18.27;77.81
72855;BME280;60991;51.278;22.550;2023-08-31T05:06:50;98355.00;;;18.32;77.58
72855;BME280;60991;51.278;22.550;2023-08-31T05:08:21;98357.38;;;18.34;77.49
72855;BME280;60991;51.278;22.550;2023-08-31T05:09:51;98361.94;;;18.25;78.26
72855;BME280;60991;51.278;22.550;2023-08-31T05:11:21;98362.06;;;18.11;78.24
72855;BME280;60991;51.278;22.550;2023-08-31T05:12:51;98360.66;;;18.14;78.71
72855;BME280;60991;51.278;22.550;2023-08-31T05:14:21;98364.59;;;18.16;78.45
72855;BME280;60991;51.278;22.550;2023-08-31T05:15:52;98360.47;;;18.10;78.73
72855;BME280;60991;51.278;22.550;2023-08-31T05:17:22;98373.09;;;18.10;78.62
72855;BME280;60991;51.278;22.550;2023-08-31T05:18:52;98373.25;;;18.05;78.77
72855;BME280;60991;51.278;22.550;2023-08-31T05:20:22;98371.34;;;18.05;78.86
72855;BME280;60991;51.278;22.550;2023-08-31T05:21:52;98376.81;;;17.91;79.04
72855;BME280;60991;51.278;22.550;2023-08-31T05:23:23;98378.72;;;17.91;78.86
72855;BME280;60991;51.278;22.550;2023-08-31T05:24:53;98377.63;;;17.92;78.93
72855;BME280;60991;51.278;22.550;2023-08-31T05:26:23;98381.91;;;17.93;78.97
72855;BME280;60991;51.278;22.550;2023-08-31T05:27:53;98382.06;;;17.96;79.00
72855;BME280;60991;51.278;22.550;2023-08-31T05:29:23;98384.44;;;17.98;79.00
72855;BME280;60991;51.278;22.550;2023-08-31T05:30:56;98386.22;;;18.11;78.47
72855;BME280;60991;51.278;22.550;2023-08-31T05:32:30;98382.75;;;18.19;78.10
72855;BME280;60991;51.278;22.550;2023-08-31T05:34:00;98394.16;;;18.25;77.93
72855;BME280;60991;51.278;22.550;2023-08-31T05:35:30;98388.66;;;18.30;77.69
72855;BME280;60991;51.278;22.550;2023-08-31T05:37:00;98392.44;;;18.38;77.35
72855;BME280;60991;51.278;22.550;2023-08-31T05:38:30;98391.53;;;18.42;77.22
72855;BME280;60991;51.278;22.550;2023-08-31T05:40:02;98399.75;;;18.46;76.37
72855;BME280;60991;51.278;22.550;2023-08-31T05:41:32;98398.31;;;18.40;76.57
72855;BME280;60991;51.278;22.550;2023-08-31T05:43:03;98401.66;;;18.37;76.87
72855;BME280;60991;51.278;22.550;2023-08-31T05:44:33;98410.81;;;18.36;77.27
72855;BME280;60991;51.278;22.550;2023-08-31T05:46:03;98397.78;;;18.20;77.69
72855;BME280;60991;51.278;22.550;2023-08-31T05:47:33;98411.97;;;18.12;78.00
72855;BME280;60991;51.278;22.550;2023-08-31T05:49:04;98408.69;;;18.15;77.73
72855;BME280;60991;51.278;22.550;2023-08-31T05:50:34;98408.84;;;18.19;77.47
72855;BME280;60991;51.278;22.550;2023-08-31T05:52:05;98410.72;;;18.10;77.63
72855;BME280;60991;51.278;22.550;2023-08-31T05:53:35;98409.13;;;18.09;77.45
72855;BME280;60991;51.278;22.550;2023-08-31T05:55:06;98417.19;;;18.09;77.38
72855;BME280;60991;51.278;22.550;2023-08-31T05:56:36;98414.50;;;18.09;77.66
72855;BME280;60991;51.278;22.550;2023-08-31T05:58:06;98418.28;;;18.08;77.71
72855;BME280;60991;51.278;22.550;2023-08-31T05:59:36;98415.41;;;18.04;77.41
72855;BME280;60991;51.278;22.550;2023-08-31T06:01:07;98422.84;;;17.98;77.84
72855;BME280;60991;51.278;22.550;2023-08-31T06:02:37;98434.69;;;17.97;77.65
72855;BME280;60991;51.278;22.550;2023-08-31T06:04:07;98429.06;;;17.85;77.73
72855;BME280;60991;51.278;22.550;2023-08-31T06:05:37;98431.25;;;17.83;77.98
72855;BME280;60991;51.278;22.550;2023-08-31T06:07:07;98432.41;;;17.91;78.23
72855;BME280;60991;51.278;22.550;2023-08-31T06:08:38;98429.91;;;17.94;77.82
72855;BME280;60991;51.278;22.550;2023-08-31T06:10:08;98426.25;;;17.90;78.22
72855;BME280;60991;51.278;22.550;2023-08-31T06:11:38;98438.41;;;17.88;78.40
72855;BME280;60991;51.278;22.550;2023-08-31T06:13:09;98433.09;;;17.96;77.94
72855;BME280;60991;51.278;22.550;2023-08-31T06:14:39;98425.38;;;18.04;77.75
72855;BME280;60991;51.278;22.550;2023-08-31T06:16:09;98426.81;;;18.10;77.95
72855;BME280;60991;51.278;22.550;2023-08-31T06:17:39;98428.28;;;18.16;77.34
72855;BME280;60991;51.278;22.550;2023-08-31T06:19:09;98429.56;;;18.18;77.66
72855;BME280;60991;51.278;22.550;2023-08-31T06:20:40;98430.97;;;18.16;77.46
72855;BME280;60991;51.278;22.550;2023-08-31T06:22:10;98431.78;;;18.25;77.18
72855;BME280;60991;51.278;22.550;2023-08-31T06:23:40;98428.47;;;18.28;77.08
72855;BME280;60991;51.278;22.550;2023-08-31T06:25:10;98425.81;;;18.37;76.87
72855;BME280;60991;51.278;22.550;2023-08-31T06:26:41;98432.94;;;18.41;77.10
72855;BME280;60991;51.278;22.550;2023-08-31T06:28:11;98428.03;;;18.43;76.92
72855;BME280;60991;51.278;22.550;2023-08-31T06:29:41;98426.50;;;18.51;76.63
72855;BME280;60991;51.278;22.550;2023-08-31T06:31:12;98429.94;;;18.43;76.83
72855;BME280;60991;51.278;22.550;2023-08-31T06:32:43;98429.00;;;18.47;77.05
72855;BME280;60991;51.278;22.550;2023-08-31T06:34:13;98427.72;;;18.45;76.80
72855;BME280;60991;51.278;22.550;2023-08-31T06:35:47;98427.91;;;18.48;76.67
72855;BME280;60991;51.278;22.550;2023-08-31T06:37:17;98430.09;;;18.46;76.51
72855;BME280;60991;51.278;22.550;2023-08-31T06:38:47;98423.59;;;18.39;76.48
72855;BME280;60991;51.278;22.550;2023-08-31T06:40:18;98427.06;;;18.39;76.82
72855;BME280;60991;51.278;22.550;2023-08-31T06:41:48;98427.13;;;18.48;76.70
72855;BME280;60991;51.278;22.550;2023-08-31T06:43:18;98431.25;;;18.54;76.93
72855;BME280;60991;51.278;22.550;2023-08-31T06:44:48;98428.69;;;18.57;76.70
72855;BME280;60991;51.278;22.550;2023-08-31T06:46:18;98430.94;;;18.55;76.16
72855;BME280;60991;51.278;22.550;2023-08-31T06:47:49;98433.28;;;18.57;76.20
72855;BME280;60991;51.278;22.550;2023-08-31T06:49:19;98435.97;;;18.57;75.88
72855;BME280;60991;51.278;22.550;2023-08-31T06:50:49;98433.81;;;18.59;75.69
72855;BME280;60991;51.278;22.550;2023-08-31T06:52:19;98434.59;;;18.59;75.08
72855;BME280;60991;51.278;22.550;2023-08-31T06:53:49;98432.03;;;18.54;74.80
72855;BME280;60991;51.278;22.550;2023-08-31T06:55:20;98445.13;;;18.47;75.42
72855;BME280;60991;51.278;22.550;2023-08-31T06:56:50;98445.31;;;18.51;75.29
72855;BME280;60991;51.278;22.550;2023-08-31T06:58:20;98451.47;;;18.51;75.16
72855;BME280;60991;51.278;22.550;2023-08-31T06:59:50;98444.25;;;18.60;74.92
72855;BME280;60991;51.278;22.550;2023-08-31T07:01:20;98441.69;;;18.55;74.11
72855;BME280;60991;51.278;22.550;2023-08-31T07:02:51;98448.63;;;18.48;74.95
72855;BME280;60991;51.278;22.550;2023-08-31T07:04:21;98447.81;;;18.56;74.73
72855;BME280;60991;51.278;22.550;2023-08-31T07:05:51;98458.16;;;18.62;75.07
72855;BME280;60991;51.278;22.550;2023-08-31T07:07:21;98454.84;;;18.65;74.14
72855;BME280;60991;51.278;22.550;2023-08-31T07:08:51;98460.38;;;18.60;73.98
72855;BME280;60991;51.278;22.550;2023-08-31T07:10:22;98456.53;;;18.53;74.41
72855;BME280;60991;51.278;22.550;2023-08-31T07:11:52;98457.28;;;18.45;73.99
72855;BME280;60991;51.278;22.550;2023-08-31T07:13:22;98467.38;;;18.39;74.13
72855;BME280;60991;51.278;22.550;2023-08-31T07:14:52;98466.56;;;18.30;74.84
72855;BME280;60991;51.278;22.550;2023-08-31T07:16:23;98469.94;;;18.44;74.79
72855;BME280;60991;51.278;22.550;2023-08-31T07:17:53;98466.13;;;18.37;75.32
72855;BME280;60991;51.278;22.550;2023-08-31T07:19:23;98468.03;;;18.45;75.32
72855;BME280;60991;51.278;22.550;2023-08-31T07:20:53;98470.78;;;18.53;74.64
72855;BME280;60991;51.278;22.550;2023-08-31T07:22:23;98468.09;;;18.53;74.50
72855;BME280;60991;51.278;22.550;2023-08-31T07:23:54;98471.88;;;18.52;73.93
72855;BME280;60991;51.278;22.550;2023-08-31T07:25:24;98479.78;;;18.57;74.31
72855;BME280;60991;51.278;22.550;2023-08-31T07:26:54;98475.97;;;18.50;73.39
72855;BME280;60991;51.278;22.550;2023-08-31T07:28:24;98471.69;;;18.49;73.41
72855;BME280;60991;51.278;22.550;2023-08-31T07:29:55;98472.97;;;18.51;73.75
72855;BME280;60991;51.278;22.550;2023-08-31T07:31:25;98482.00;;;18.55;73.61
72855;BME280;60991;51.278;22.550;2023-08-31T07:32:55;98476.41;;;18.43;72.72
72855;BME280;60991;51.278;22.550;2023-08-31T07:34:25;98485.56;;;18.33;73.53
72855;BME280;60991;51.278;22.550;2023-08-31T07:35:56;98484.47;;;18.34;73.95
72855;BME280;60991;51.278;22.550;2023-08-31T07:37:26;98491.09;;;18.37;73.85
72855;BME280;60991;51.278;22.550;2023-08-31T07:38:56;98487.47;;;18.42;73.54
72855;BME280;60991;51.278;22.550;2023-08-31T07:40:26;98492.06;;;18.41;73.74
72855;BME280;60991;51.278;22.550;2023-08-31T07:41:57;98498.69;;;18.35;74.06
72855;BME280;60991;51.278;22.550;2023-08-31T07:43:27;98506.09;;;18.38;73.81
72855;BME280;60991;51.278;22.550;2023-08-31T07:44:57;98500.09;;;18.32;73.80
72855;BME280;60991;51.278;22.550;2023-08-31T07:46:27;98498.38;;;18.37;74.24
72855;BME280;60991;51.278;22.550;2023-08-31T07:47:57;98495.50;;;18.33;74.20
72855;BME280;60991;51.278;22.550;2023-08-31T07:49:28;98497.13;;;18.43;74.19
72855;BME280;60991;51.278;22.550;2023-08-31T07:50:58;98500.00;;;18.46;73.66
72855;BME280;60991;51.278;22.550;2023-08-31T07:52:28;98503.09;;;18.40;74.06
72855;BME280;60991;51.278;22.550;2023-08-31T07:53:59;98500.59;;;18.43;73.58
72855;BME280;60991;51.278;22.550;2023-08-31T07:55:30;98493.34;;;18.44;73.34
72855;BME280;60991;51.278;22.550;2023-08-31T07:57:00;98494.31;;;18.48;73.27
72855;BME280;60991;51.278;22.550;2023-08-31T07:58:30;98486.25;;;18.48;73.23